Time;durP1;ratioP1;P1;durP2;ratioP2;P2;SDS_P1;SDS_P2;PMS_P1;PMS_P2;Temp;Humidity;BMP_temperature;BMP_pressure;BME280_temperature;BME280_humidity;BME280_pressure;Samples;Min_cycle;Max_cycle;Signal;HPM_P1;HPM_P2
2022/10/03 00:00:17;;;;;;;;;;;14.10;61.00;;;;;;5019162;28;19920;-89
2022/10/03 00:03:01;;;;;;;;;;;14.10;61.00;;;;;;5014088;28;19917;-86
2022/10/03 00:05:38;;;;;;;;;;;14.10;61.10;;;;;;5030456;28;19920;-89
2022/10/03 00:08:04;;;;;;;;;;;14.10;61.30;;;;;;5013989;28;19928;-89
2022/10/03 00:10:48;;;;;;;;;;;14.10;61.30;;;;;;5014448;28;19917;-86
2022/10/03 00:13:24;;;;;;;;;;;14.10;61.20;;;;;;5012549;28;20434;-86
2022/10/03 00:16:13;;;;;;;;;;;14.00;61.30;;;;;;5012877;28;19960;-89
2022/10/03 00:18:44;;;;;;;;;;;14.10;61.30;;;;;;5032422;28;19982;-87
2022/10/03 00:21:18;;;;;;;;;;;14.10;61.20;;;;;;5028485;28;19913;-88
2022/10/03 00:23:46;;;;;;;;;;;14.10;61.50;;;;;;5020259;28;19941;-86
2022/10/03 00:26:29;;;;;;;;;;;14.10;61.60;;;;;;5013135;28;19971;-86
2022/10/03 00:29:24;;;;;;;;;;;14.10;61.40;;;;;;5022231;28;19921;-89
2022/10/03 00:32:03;;;;;;;;;;;14.10;61.40;;;;;;4959696;28;19914;-87
2022/10/03 00:34:32;;;;;;;;;;;14.10;61.30;;;;;;5028212;28;19921;-88
2022/10/03 00:37:16;;;;;;;;;;;14.10;61.20;;;;;;5013434;28;19914;-89
2022/10/03 00:40:00;;;;;;;;;;;14.10;61.20;;;;;;5012568;28;19921;-88
2022/10/03 00:42:34;;;;;;;;;;;14.10;61.10;;;;;;5032160;28;19925;-88
2022/10/03 00:45:18;;;;;;;;;;;14.00;61.10;;;;;;5014365;28;19909;-88
2022/10/03 00:47:53;;;;;;;;;;;14.00;61.00;;;;;;5031861;28;20016;-88
2022/10/03 00:50:27;;;;;;;;;;;14.00;61.00;;;;;;5031972;28;19921;-87
2022/10/03 00:53:16;;;;;;;;;;;14.00;60.90;;;;;;5014289;28;19917;-87
2022/10/03 00:55:59;;;;;;;;;;;14.00;60.80;;;;;;5008654;28;19909;-87
2022/10/03 00:58:54;;;;;;;;;;;14.00;60.70;;;;;;5013899;28;20434;-88
2022/10/03 01:01:20;;;;;;;;;;;13.90;60.60;;;;;;4978075;28;19911;-88
2022/10/03 01:03:49;;;;;;;;;;;13.90;60.60;;;;;;5032086;28;19917;-87
2022/10/03 01:06:30;;;;;;;;;;;13.90;60.50;;;;;;5013895;28;19921;-89
2022/10/03 01:09:14;;;;;;;;;;;13.90;60.40;;;;;;5012893;28;20314;-87
2022/10/03 01:11:52;;;;;;;;;;;13.80;60.40;;;;;;5030802;28;20326;-87
2022/10/03 01:14:37;;;;;;;;;;;13.80;60.40;;;;;;5013263;28;19927;-89
2022/10/03 01:17:22;;;;;;;;;;;13.80;60.40;;;;;;5010856;28;19913;-89
2022/10/03 01:19:47;;;;;;;;;;;13.70;60.30;;;;;;5035615;28;19913;-88
2022/10/03 01:22:28;;;;;;;;;;;13.70;60.30;;;;;;5051050;28;19909;-87
2022/10/03 01:24:58;;;;;;;;;;;13.70;60.10;;;;;;5027229;28;19914;-89
2022/10/03 01:30:21;;;;;;;;;;;13.60;60.10;;;;;;5030748;28;20063;-87
2022/10/03 01:30:33;;;;;;;;;;;13.60;60.10;;;;;;5018966;28;19924;-87
2022/10/03 01:33:09;;;;;;;;;;;13.50;60.20;;;;;;5012997;28;20391;-89
2022/10/03 01:35:53;;;;;;;;;;;13.50;60.20;;;;;;5012286;28;19918;-87
2022/10/03 01:38:42;;;;;;;;;;;13.50;60.10;;;;;;5012601;28;19921;-87
2022/10/03 01:41:19;;;;;;;;;;;13.50;60.30;;;;;;5008556;28;19918;-87
2022/10/03 01:43:44;;;;;;;;;;;13.40;60.50;;;;;;5012613;28;20291;-88
2022/10/03 01:46:31;;;;;;;;;;;13.40;60.50;;;;;;5010973;28;19925;-89
2022/10/03 01:49:09;;;;;;;;;;;13.40;60.30;;;;;;5008881;28;19970;-88
2022/10/03 01:51:54;;;;;;;;;;;13.40;60.30;;;;;;5012412;28;19914;-89
2022/10/03 01:54:32;;;;;;;;;;;13.40;60.30;;;;;;5029504;28;19917;-87
2022/10/03 01:57:25;;;;;;;;;;;13.30;60.40;;;;;;5010707;28;20008;-89
2022/10/03 01:59:58;;;;;;;;;;;13.30;60.50;;;;;;5028725;28;20012;-89
2022/10/03 02:02:26;;;;;;;;;;;13.30;60.40;;;;;;5012450;28;19917;-88
2022/10/03 02:05:12;;;;;;;;;;;13.30;60.40;;;;;;5027712;28;19919;-89
2022/10/03 02:07:53;;;;;;;;;;;13.30;60.40;;;;;;5017583;28;20265;-87
2022/10/03 02:10:27;;;;;;;;;;;13.30;60.40;;;;;;5011095;28;19913;-88
2022/10/03 02:12:54;;;;;;;;;;;13.20;60.40;;;;;;5010226;28;19917;-89
2022/10/03 02:15:22;;;;;;;;;;;13.20;60.40;;;;;;5009718;28;19913;-87
2022/10/03 02:17:54;;;;;;;;;;;13.20;60.40;;;;;;5029489;28;19917;-88
2022/10/03 02:20:26;;;;;;;;;;;13.20;60.30;;;;;;5029250;28;19916;-88
2022/10/03 02:22:53;;;;;;;;;;;13.20;60.30;;;;;;5012839;28;20439;-88
2022/10/03 02:25:24;;;;;;;;;;;13.10;60.40;;;;;;5011407;28;20295;-88
2022/10/03 02:27:53;;;;;;;;;;;13.10;60.50;;;;;;5012204;28;20435;-88
2022/10/03 02:30:22;;;;;;;;;;;13.10;60.60;;;;;;5011368;28;19921;-87
2022/10/03 02:32:50;;;;;;;;;;;13.10;60.60;;;;;;5011773;28;20379;-88
2022/10/03 02:35:16;;;;;;;;;;;13.10;60.60;;;;;;5011358;28;19921;-88
2022/10/03 02:38:00;;;;;;;;;;;13.10;60.60;;;;;;5029184;28;20277;-88
2022/10/03 02:40:46;;;;;;;;;;;13.10;60.60;;;;;;5029950;28;19921;-89
2022/10/03 02:43:13;;;;;;;;;;;13.10;60.70;;;;;;5027971;28;19996;-89
2022/10/03 02:45:51;;;;;;;;;;;13.10;60.70;;;;;;5029116;28;19925;-88
2022/10/03 02:48:25;;;;;;;;;;;13.10;60.70;;;;;;5012227;28;19925;-89
2022/10/03 02:51:03;;;;;;;;;;;13.00;60.70;;;;;;5030403;28;19936;-87
2022/10/03 02:53:47;;;;;;;;;;;13.00;60.80;;;;;;5027774;28;19944;-88
2022/10/03 02:56:24;;;;;;;;;;;13.00;60.80;;;;;;5014045;28;19920;-88
2022/10/03 02:59:13;;;;;;;;;;;13.00;60.90;;;;;;5029394;28;19921;-89
2022/10/03 03:01:48;;;;;;;;;;;13.00;60.90;;;;;;4987216;28;20067;-88
2022/10/03 03:04:26;;;;;;;;;;;13.00;60.80;;;;;;5033384;28;20461;-89
2022/10/03 03:07:09;;;;;;;;;;;13.00;60.70;;;;;;5015201;28;19976;-88
2022/10/03 03:09:35;;;;;;;;;;;12.90;60.70;;;;;;5032457;28;20412;-88
2022/10/03 03:12:04;;;;;;;;;;;12.90;60.80;;;;;;5015118;28;19951;-87
2022/10/03 03:14:59;;;;;;;;;;;12.90;60.70;;;;;;5015164;28;20614;-87
2022/10/03 03:17:36;;;;;;;;;;;12.90;60.70;;;;;;4977113;28;19961;-87
2022/10/03 03:20:14;;;;;;;;;;;12.80;60.70;;;;;;5015348;28;19917;-87
2022/10/03 03:22:56;;;;;;;;;;;12.80;60.80;;;;;;5014333;28;19917;-87
2022/10/03 03:25:40;;;;;;;;;;;12.80;60.80;;;;;;5033459;28;19916;-88
2022/10/03 03:28:10;;;;;;;;;;;12.80;60.90;;;;;;5010852;28;20422;-89
2022/10/03 03:30:54;;;;;;;;;;;12.80;60.90;;;;;;5015861;28;19921;-88
2022/10/03 03:33:28;;;;;;;;;;;12.80;61.00;;;;;;5017665;28;19917;-87
2022/10/03 03:36:02;;;;;;;;;;;12.80;61.20;;;;;;5033464;28;19916;-89
2022/10/03 03:38:30;;;;;;;;;;;12.70;61.40;;;;;;5033431;28;20026;-88
2022/10/03 03:41:08;;;;;;;;;;;12.80;61.60;;;;;;4995970;28;20391;-89
2022/10/03 03:44:05;;;;;;;;;;;12.80;61.70;;;;;;5013732;28;19924;-88
2022/10/03 03:46:33;;;;;;;;;;;12.80;62.10;;;;;;4987769;28;19922;-89
2022/10/03 03:49:08;;;;;;;;;;;12.80;62.20;;;;;;5013412;28;19925;-88
2022/10/03 03:51:33;;;;;;;;;;;12.90;62.00;;;;;;5019367;28;19913;-89
2022/10/03 03:53:59;;;;;;;;;;;12.90;62.10;;;;;;5014568;28;19925;-87
2022/10/03 03:56:25;;;;;;;;;;;13.00;62.20;;;;;;5015086;28;19916;-89
2022/10/03 03:58:53;;;;;;;;;;;13.00;62.30;;;;;;5033550;28;19924;-87
2022/10/03 04:01:19;;;;;;;;;;;13.10;62.60;;;;;;5014928;28;20314;-87
2022/10/03 04:03:47;;;;;;;;;;;13.10;62.70;;;;;;5046033;28;19917;-89
2022/10/03 04:06:33;;;;;;;;;;;13.10;62.80;;;;;;5014908;28;20261;-88
2022/10/03 04:09:19;;;;;;;;;;;13.20;62.50;;;;;;5014879;28;19923;-87
2022/10/03 04:11:58;;;;;;;;;;;13.10;62.20;;;;;;5002071;28;19909;-88
2022/10/03 04:14:23;;;;;;;;;;;13.20;61.90;;;;;;5012800;28;20423;-88
2022/10/03 04:20:01;;;;;;;;;;;13.20;61.70;;;;;;5015890;28;19961;-88
2022/10/03 04:22:29;;;;;;;;;;;13.10;61.70;;;;;;5011406;28;19918;-88
2022/10/03 04:25:07;;;;;;;;;;;13.10;61.60;;;;;;5013732;28;19937;-87
2022/10/03 04:27:36;;;;;;;;;;;13.10;61.50;;;;;;5018587;28;19926;-88
2022/10/03 04:30:06;;;;;;;;;;;13.00;61.40;;;;;;5012651;28;19917;-88
2022/10/03 04:32:46;;;;;;;;;;;13.00;61.40;;;;;;5013356;28;19917;-87
2022/10/03 04:35:11;;;;;;;;;;;13.00;61.30;;;;;;5010779;28;19916;-88
2022/10/03 04:37:40;;;;;;;;;;;12.90;61.20;;;;;;5014466;28;19921;-87
2022/10/03 04:40:08;;;;;;;;;;;12.90;61.20;;;;;;5032670;28;19917;-87
2022/10/03 04:42:35;;;;;;;;;;;12.80;61.10;;;;;;5032343;28;20008;-87
2022/10/03 04:45:00;;;;;;;;;;;12.80;61.00;;;;;;5015152;28;19984;-88
2022/10/03 04:47:29;;;;;;;;;;;12.80;61.10;;;;;;5014368;28;20006;-88
2022/10/03 04:49:55;;;;;;;;;;;12.70;61.10;;;;;;5031999;28;19932;-87
2022/10/03 04:52:20;;;;;;;;;;;12.70;61.10;;;;;;5014543;28;19917;-87
2022/10/03 04:54:51;;;;;;;;;;;12.70;61.00;;;;;;5031861;28;20007;-87
2022/10/03 04:57:40;;;;;;;;;;;12.60;61.20;;;;;;5014327;28;20012;-88
2022/10/03 05:00:11;;;;;;;;;;;12.70;61.10;;;;;;5011973;28;20343;-89
2022/10/03 05:03:19;;;;;;;;;;;12.70;61.40;;;;;;5013756;28;20015;-88
2022/10/03 05:05:49;;;;;;;;;;;12.70;61.50;;;;;;4958109;28;19914;-88
2022/10/03 05:08:29;;;;;;;;;;;12.60;62.00;;;;;;4976678;28;19918;-87
2022/10/03 05:11:06;;;;;;;;;;;12.60;62.20;;;;;;5004128;28;20465;-87
2022/10/03 05:13:43;;;;;;;;;;;12.60;62.70;;;;;;5015766;28;20475;-87
2022/10/03 05:16:09;;;;;;;;;;;12.70;62.80;;;;;;5014282;28;19917;-88
2022/10/03 05:18:51;;;;;;;;;;;12.70;63.00;;;;;;5030760;28;19924;-87
2022/10/03 05:21:35;;;;;;;;;;;12.80;63.00;;;;;;5027467;28;20321;-87
2022/10/03 05:24:18;;;;;;;;;;;12.80;63.10;;;;;;5010999;28;20427;-87
2022/10/03 05:27:02;;;;;;;;;;;12.90;63.20;;;;;;5029884;28;19928;-88
2022/10/03 05:29:42;;;;;;;;;;;12.90;63.30;;;;;;5013663;28;19921;-88
2022/10/03 05:32:20;;;;;;;;;;;13.00;63.60;;;;;;5028442;28;19974;-87
2022/10/03 05:35:04;;;;;;;;;;;13.20;64.00;;;;;;5023929;28;19928;-88
2022/10/03 05:37:37;;;;;;;;;;;13.30;64.40;;;;;;5021038;28;19921;-87
2022/10/03 05:40:03;;;;;;;;;;;13.50;64.50;;;;;;5012745;28;19913;-88
2022/10/03 05:42:47;;;;;;;;;;;13.70;64.60;;;;;;5009127;28;20459;-88
2022/10/03 05:45:23;;;;;;;;;;;13.80;64.60;;;;;;5033439;28;19909;-88
2022/10/03 05:48:07;;;;;;;;;;;13.90;64.70;;;;;;5025671;28;19944;-87
2022/10/03 05:50:32;;;;;;;;;;;14.10;64.70;;;;;;5026988;28;19909;-87
2022/10/03 05:53:01;;;;;;;;;;;14.20;64.70;;;;;;5017734;28;19952;-87
2022/10/03 05:55:26;;;;;;;;;;;14.30;64.60;;;;;;5012821;28;19954;-86
2022/10/03 05:57:53;;;;;;;;;;;14.50;64.60;;;;;;5031028;28;20008;-86
2022/10/03 06:00:25;;;;;;;;;;;14.60;64.50;;;;;;5012868;28;19913;-86
2022/10/03 06:02:50;;;;;;;;;;;14.70;64.60;;;;;;5030351;28;19917;-87
2022/10/03 06:05:31;;;;;;;;;;;14.80;64.50;;;;;;5017368;28;19932;-85
2022/10/03 06:08:08;;;;;;;;;;;14.90;64.50;;;;;;5010033;28;19925;-87
2022/10/03 06:10:43;;;;;;;;;;;15.00;64.50;;;;;;5027089;28;19913;-86
2022/10/03 06:13:14;;;;;;;;;;;15.10;64.60;;;;;;5030912;28;20067;-88
2022/10/03 06:15:53;;;;;;;;;;;15.20;64.60;;;;;;5012778;28;20249;-88
2022/10/03 06:18:37;;;;;;;;;;;15.20;64.50;;;;;;5012973;28;20022;-87
2022/10/03 06:21:03;;;;;;;;;;;15.30;64.50;;;;;;5001625;28;20427;-88
2022/10/03 06:23:29;;;;;;;;;;;15.30;64.60;;;;;;5022681;28;19962;-87
2022/10/03 06:26:14;;;;;;;;;;;15.40;64.70;;;;;;5001305;28;19917;-88
2022/10/03 06:28:42;;;;;;;;;;;15.50;64.80;;;;;;5006275;28;19956;-87
2022/10/03 06:31:20;;;;;;;;;;;15.60;64.80;;;;;;5003738;28;19914;-88
2022/10/03 06:34:16;;;;;;;;;;;15.70;64.70;;;;;;5037431;28;19916;-89
2022/10/03 06:36:47;;;;;;;;;;;15.80;64.70;;;;;;5016218;28;19913;-88
2022/10/03 06:39:22;;;;;;;;;;;15.80;64.90;;;;;;5034752;28;20473;-88
2022/10/03 06:41:56;;;;;;;;;;;16.00;64.90;;;;;;5016603;28;19967;-88
2022/10/03 06:44:22;;;;;;;;;;;16.10;64.90;;;;;;5034108;28;19940;-88
2022/10/03 06:47:07;;;;;;;;;;;16.20;64.80;;;;;;5033201;28;19964;-87
2022/10/03 06:49:33;;;;;;;;;;;16.30;64.70;;;;;;5011249;28;19932;-88
2022/10/03 06:52:07;;;;;;;;;;;16.30;64.90;;;;;;5034908;28;19917;-87
2022/10/03 06:54:51;;;;;;;;;;;16.50;64.90;;;;;;5016320;28;19913;-88
2022/10/03 06:57:17;;;;;;;;;;;16.60;65.00;;;;;;4997147;28;20016;-89
2022/10/03 06:59:48;;;;;;;;;;;16.70;65.10;;;;;;5013338;28;20012;-87
2022/10/03 07:02:17;;;;;;;;;;;16.80;65.10;;;;;;5013301;28;19916;-89
2022/10/03 07:04:51;;;;;;;;;;;17.00;65.10;;;;;;5013176;28;19918;-88
2022/10/03 07:07:36;;;;;;;;;;;17.10;65.20;;;;;;5017974;28;19921;-88
2022/10/03 07:10:14;;;;;;;;;;;17.30;65.30;;;;;;5016462;28;19928;-88
2022/10/03 07:12:42;;;;;;;;;;;17.40;65.40;;;;;;5034278;28;20395;-87
2022/10/03 07:15:27;;;;;;;;;;;17.50;65.40;;;;;;5016849;28;20356;-88
2022/10/03 07:18:07;;;;;;;;;;;17.70;65.40;;;;;;5016458;28;20560;-87
2022/10/03 07:20:59;;;;;;;;;;;17.80;65.50;;;;;;5031348;28;20012;-88
2022/10/03 07:23:40;;;;;;;;;;;18.00;65.80;;;;;;4998765;28;19913;-89
2022/10/03 07:26:25;;;;;;;;;;;18.20;65.80;;;;;;5009033;28;19975;-87
2022/10/03 07:28:59;;;;;;;;;;;18.40;65.80;;;;;;5014088;28;19920;-87
2022/10/03 07:31:31;;;;;;;;;;;18.50;65.90;;;;;;5010264;28;19916;-88
2022/10/03 07:34:05;;;;;;;;;;;18.70;65.80;;;;;;5027709;28;19917;-88
2022/10/03 07:39:54;;;;;;;;;;;19.00;65.70;;;;;;5034015;28;19964;-89
2022/10/03 07:42:40;;;;;;;;;;;19.10;65.80;;;;;;4985903;28;20308;-89
2022/10/03 07:45:29;;;;;;;;;;;19.30;65.80;;;;;;4959985;28;19955;-87
2022/10/03 07:48:12;;;;;;;;;;;19.40;65.50;;;;;;5010896;28;19932;-89
2022/10/03 07:50:39;;;;;;;;;;;19.50;65.70;;;;;;5013587;28;19924;-88
2022/10/03 07:53:06;;;;;;;;;;;19.70;65.80;;;;;;5037965;28;20366;-88
2022/10/03 07:55:52;;;;;;;;;;;19.80;65.70;;;;;;5013946;28;20360;-87
2022/10/03 07:58:27;;;;;;;;;;;20.00;65.80;;;;;;5029058;28;19917;-88
2022/10/03 08:00:55;;;;;;;;;;;20.10;65.70;;;;;;5025976;28;19921;-86
2022/10/03 08:03:40;;;;;;;;;;;20.30;65.90;;;;;;5018593;28;20288;-87
2022/10/03 08:06:10;;;;;;;;;;;20.50;66.00;;;;;;5013680;28;20318;-87
2022/10/03 08:08:51;;;;;;;;;;;20.60;65.90;;;;;;5042208;28;19928;-88
2022/10/03 08:11:26;;;;;;;;;;;20.80;65.90;;;;;;5009025;28;20281;-87
2022/10/03 08:13:57;;;;;;;;;;;21.00;65.90;;;;;;5053907;28;19924;-87
2022/10/03 08:16:34;;;;;;;;;;;21.30;66.00;;;;;;5014935;28;20368;-88
2022/10/03 08:19:10;;;;;;;;;;;21.40;66.10;;;;;;5031599;28;20473;-88
2022/10/03 08:21:54;;;;;;;;;;;21.60;66.00;;;;;;5030452;28;19913;-88
2022/10/03 08:24:19;;;;;;;;;;;21.80;65.50;;;;;;5031459;28;19957;-86
2022/10/03 08:26:50;;;;;;;;;;;21.80;65.20;;;;;;5022494;28;19975;-88
2022/10/03 08:29:25;;;;;;;;;;;21.90;65.20;;;;;;5032104;28;19925;-87
2022/10/03 08:31:51;;;;;;;;;;;22.00;64.80;;;;;;5020993;28;19948;-88
2022/10/03 08:34:39;;;;;;;;;;;22.10;64.60;;;;;;5020792;28;19970;-85
2022/10/03 08:37:23;;;;;;;;;;;22.20;63.90;;;;;;5014820;28;19955;-87
2022/10/03 08:39:48;;;;;;;;;;;22.20;63.90;;;;;;5032027;28;19922;-87
2022/10/03 08:42:29;;;;;;;;;;;22.30;64.50;;;;;;5023485;28;19916;-87
2022/10/03 08:44:57;;;;;;;;;;;22.40;64.60;;;;;;5043387;28;20286;-86
2022/10/03 08:47:46;;;;;;;;;;;22.60;64.50;;;;;;5014392;28;19917;-87
2022/10/03 08:50:12;;;;;;;;;;;22.80;64.70;;;;;;5012637;28;19924;-89
2022/10/03 08:52:59;;;;;;;;;;;23.00;65.40;;;;;;5030366;28;19913;-87
2022/10/03 08:55:44;;;;;;;;;;;23.20;65.30;;;;;;5033063;28;19923;-87
2022/10/03 08:58:17;;;;;;;;;;;23.40;65.60;;;;;;5023492;28;20156;-88
2022/10/03 09:00:51;;;;;;;;;;;23.60;65.80;;;;;;5003508;28;20378;-88
2022/10/03 09:03:35;;;;;;;;;;;24.00;67.10;;;;;;5027305;28;19916;-87
2022/10/03 09:06:07;;;;;;;;;;;24.50;67.60;;;;;;5024235;28;20016;-89
2022/10/03 09:08:36;;;;;;;;;;;25.00;67.00;;;;;;5032348;28;19909;-86
2022/10/03 09:11:20;;;;;;;;;;;25.30;66.50;;;;;;5030054;28;19928;-88
2022/10/03 09:13:56;;;;;;;;;;;25.60;66.00;;;;;;5033439;28;19909;-86
2022/10/03 09:16:38;;;;;;;;;;;25.80;66.00;;;;;;5016436;28;19928;-88
2022/10/03 09:19:34;;;;;;;;;;;26.30;67.40;;;;;;5032929;28;19922;-88
2022/10/03 09:22:00;;;;;;;;;;;27.00;67.20;;;;;;5025140;28;20340;-88
2022/10/03 09:24:38;;;;;;;;;;;27.50;66.10;;;;;;5035196;28;19924;-88
2022/10/03 09:27:36;;;;;;;;;;;27.80;65.60;;;;;;5012610;28;20361;-87
2022/10/03 09:30:06;;;;;;;;;;;28.00;65.40;;;;;;4976614;28;19925;-88
2022/10/03 09:32:31;;;;;;;;;;;28.20;64.70;;;;;;5012385;28;19909;-89
2022/10/03 09:35:09;;;;;;;;;;;28.40;65.10;;;;;;5029870;28;19913;-87
2022/10/03 09:37:34;;;;;;;;;;;28.80;65.30;;;;;;5013789;28;20030;-89
2022/10/03 09:40:19;;;;;;;;;;;29.30;64.50;;;;;;5014225;28;19932;-88
2022/10/03 09:43:03;;;;;;;;;;;29.80;63.90;;;;;;5011300;28;19913;-88
2022/10/03 09:45:32;;;;;;;;;;;30.30;64.30;;;;;;5030769;28;20008;-88
2022/10/03 09:47:57;;;;;;;;;;;30.80;63.90;;;;;;5031670;28;19925;-89
2022/10/03 09:50:23;;;;;;;;;;;31.20;63.60;;;;;;5032379;28;19913;-85
2022/10/03 09:52:51;;;;;;;;;;;31.60;62.10;;;;;;5012905;28;19924;-87
2022/10/03 09:55:29;;;;;;;;;;;32.00;62.10;;;;;;5014482;28;20020;-86
2022/10/03 10:04:18;;;;;;;;;;;33.40;59.00;;;;;;5073439;28;20373;-86
2022/10/03 10:06:54;;;;;;;;;;;33.90;58.20;;;;;;5071129;28;19994;-87
2022/10/03 10:09:27;;;;;;;;;;;34.40;56.00;;;;;;5054151;28;19913;-86
2022/10/03 10:11:59;;;;;;;;;;;34.90;55.20;;;;;;5069772;28;19972;-88
2022/10/03 10:14:31;;;;;;;;;;;35.30;52.30;;;;;;5056291;28;20476;-88
2022/10/03 10:17:05;;;;;;;;;;;35.70;51.60;;;;;;5054838;28;19935;-88
2022/10/03 10:19:45;;;;;;;;;;;36.10;49.40;;;;;;5053523;28;19913;-87
2022/10/03 10:22:17;;;;;;;;;;;36.20;47.90;;;;;;5066706;28;19920;-86
2022/10/03 10:25:01;;;;;;;;;;;36.30;47.60;;;;;;5070247;28;19928;-88
2022/10/03 10:27:45;;;;;;;;;;;36.30;45.90;;;;;;5054471;28;19920;-88
2022/10/03 10:30:23;;;;;;;;;;;36.20;44.20;;;;;;5053475;28;19913;-88
2022/10/03 10:33:07;;;;;;;;;;;35.90;43.50;;;;;;5043243;28;19982;-86
2022/10/03 10:35:43;;;;;;;;;;;35.60;43.00;;;;;;5066664;28;19952;-89
2022/10/03 10:38:11;;;;;;;;;;;35.10;42.00;;;;;;5069986;28;20076;-89
2022/10/03 10:40:55;;;;;;;;;;;34.70;43.10;;;;;;5051112;28;20351;-86
2022/10/03 10:43:27;;;;;;;;;;;34.50;42.30;;;;;;5070664;28;19996;-89
2022/10/03 10:46:11;;;;;;;;;;;34.50;42.20;;;;;;5070731;28;20022;-90
2022/10/03 10:48:56;;;;;;;;;;;34.60;41.70;;;;;;5054464;28;19917;-88
2022/10/03 10:51:28;;;;;;;;;;;34.60;41.70;;;;;;5048574;28;19927;-88
2022/10/03 10:54:20;;;;;;;;;;;34.70;40.40;;;;;;5072010;28;19966;-87
2022/10/03 10:56:45;;;;;;;;;;;34.80;41.00;;;;;;5067932;28;19912;-89
2022/10/03 10:59:20;;;;;;;;;;;35.00;40.10;;;;;;5071511;28;20463;-87
2022/10/03 11:01:57;;;;;;;;;;;35.20;39.30;;;;;;5067845;28;19991;-87
2022/10/03 11:04:41;;;;;;;;;;;35.30;38.90;;;;;;5071319;28;19942;-90
2022/10/03 11:07:11;;;;;;;;;;;35.60;39.40;;;;;;5032426;28;19920;-87
2022/10/03 11:09:39;;;;;;;;;;;35.70;39.30;;;;;;5051851;28;19928;-88
2022/10/03 11:12:24;;;;;;;;;;;36.00;38.70;;;;;;5053966;28;19916;-87
2022/10/03 11:15:08;;;;;;;;;;;36.30;38.30;;;;;;5055112;28;19924;-89
2022/10/03 11:17:52;;;;;;;;;;;36.70;37.50;;;;;;5072511;28;19912;-90
2022/10/03 11:20:36;;;;;;;;;;;37.10;36.40;;;;;;5072402;28;19916;-89
2022/10/03 11:23:20;;;;;;;;;;;37.20;36.10;;;;;;5054447;28;19908;-87
2022/10/03 11:25:52;;;;;;;;;;;37.00;34.70;;;;;;5075169;28;19958;-87
2022/10/03 11:28:25;;;;;;;;;;;36.50;35.90;;;;;;5056555;28;19943;-88
2022/10/03 11:30:54;;;;;;;;;;;36.00;35.00;;;;;;5054948;28;19917;-89
2022/10/03 11:33:40;;;;;;;;;;;35.50;36.10;;;;;;5071761;28;19939;-88
2022/10/03 11:36:18;;;;;;;;;;;35.10;36.40;;;;;;5031786;28;19912;-88
2022/10/03 11:38:55;;;;;;;;;;;34.70;36.10;;;;;;5073775;28;19959;-87
2022/10/03 11:41:34;;;;;;;;;;;34.30;35.80;;;;;;5053564;28;19920;-89
2022/10/03 11:43:59;;;;;;;;;;;34.00;36.40;;;;;;5059013;28;20289;-89
2022/10/03 11:46:28;;;;;;;;;;;33.70;36.90;;;;;;5054636;28;19917;-87
2022/10/03 11:48:57;;;;;;;;;;;33.30;36.80;;;;;;5077227;28;20274;-89
2022/10/03 11:51:31;;;;;;;;;;;32.90;36.80;;;;;;5051747;28;19912;-87
2022/10/03 11:54:03;;;;;;;;;;;32.50;36.60;;;;;;5035590;28;19956;-87
2022/10/03 11:57:04;;;;;;;;;;;32.10;37.00;;;;;;5051581;28;19978;-87
2022/10/03 11:59:44;;;;;;;;;;;31.70;36.90;;;;;;4991179;28;19926;-88
2022/10/03 12:02:29;;;;;;;;;;;31.30;37.60;;;;;;5043123;28;19908;-87
2022/10/03 12:04:54;;;;;;;;;;;30.90;38.00;;;;;;5073096;28;19921;-87
2022/10/03 12:10:31;;;;;;;;;;;30.30;39.20;;;;;;5074284;28;19923;-89
2022/10/03 12:12:58;;;;;;;;;;;29.90;39.10;;;;;;5072464;28;19908;-89
2022/10/03 12:15:33;;;;;;;;;;;29.70;39.40;;;;;;5076092;28;20493;-89
2022/10/03 12:18:14;;;;;;;;;;;29.40;39.00;;;;;;5072493;28;19913;-87
2022/10/03 12:20:58;;;;;;;;;;;29.20;38.50;;;;;;5082018;28;19957;-87
2022/10/03 12:23:31;;;;;;;;;;;29.00;38.10;;;;;;5070998;28;19917;-87
2022/10/03 12:26:01;;;;;;;;;;;28.80;38.80;;;;;;5054273;28;19912;-89
2022/10/03 12:28:30;;;;;;;;;;;28.80;38.60;;;;;;5072668;28;19985;-87
2022/10/03 12:31:03;;;;;;;;;;;28.80;38.60;;;;;;5052571;28;19920;-88
2022/10/03 12:33:43;;;;;;;;;;;28.80;38.40;;;;;;5071033;28;19919;-86
2022/10/03 12:36:09;;;;;;;;;;;28.70;37.20;;;;;;5072890;28;19919;-87
2022/10/03 12:38:40;;;;;;;;;;;28.40;37.40;;;;;;5057399;28;19916;-87
2022/10/03 12:41:11;;;;;;;;;;;28.30;38.10;;;;;;5052336;28;20033;-87
2022/10/03 12:43:37;;;;;;;;;;;28.30;38.80;;;;;;5072435;28;20386;-87
2022/10/03 12:46:09;;;;;;;;;;;28.30;38.80;;;;;;5056377;28;19916;-88
2022/10/03 12:49:10;;;;;;;;;;;28.30;38.70;;;;;;5072563;28;19927;-87
2022/10/03 12:51:44;;;;;;;;;;;28.30;38.90;;;;;;4987166;28;19922;-87
2022/10/03 12:54:16;;;;;;;;;;;28.20;38.50;;;;;;5028041;28;19920;-87
2022/10/03 12:56:49;;;;;;;;;;;28.20;38.70;;;;;;5069656;28;20351;-87
2022/10/03 12:59:17;;;;;;;;;;;28.10;38.30;;;;;;5063114;28;19920;-90
2022/10/03 13:01:43;;;;;;;;;;;27.90;37.60;;;;;;5050944;28;20382;-88
2022/10/03 13:04:29;;;;;;;;;;;27.80;37.80;;;;;;5071136;28;19923;-89
2022/10/03 13:07:14;;;;;;;;;;;27.70;37.90;;;;;;5054589;28;19920;-87
2022/10/03 13:09:45;;;;;;;;;;;27.60;38.00;;;;;;5053910;28;19917;-87
2022/10/03 13:12:30;;;;;;;;;;;27.30;38.00;;;;;;5050363;28;19951;-87
2022/10/03 13:15:15;;;;;;;;;;;27.20;38.70;;;;;;5053509;28;19978;-87
2022/10/03 13:17:40;;;;;;;;;;;27.10;39.20;;;;;;5053885;28;20375;-86
2022/10/03 13:20:22;;;;;;;;;;;26.90;38.60;;;;;;5072511;28;19931;-89
2022/10/03 13:23:02;;;;;;;;;;;26.80;39.30;;;;;;5052786;28;20008;-89
2022/10/03 13:25:36;;;;;;;;;;;26.70;39.30;;;;;;5072531;28;19927;-89
2022/10/03 13:28:16;;;;;;;;;;;26.60;39.50;;;;;;5054206;28;22784;-89
2022/10/03 13:30:46;;;;;;;;;;;26.60;39.50;;;;;;5052369;28;20032;-87
2022/10/03 13:33:21;;;;;;;;;;;26.50;39.20;;;;;;5053288;28;19940;-86
2022/10/03 13:35:58;;;;;;;;;;;26.50;39.10;;;;;;5056906;28;20406;-86
2022/10/03 13:38:44;;;;;;;;;;;26.50;39.30;;;;;;5071875;28;20503;-90
2022/10/03 13:41:27;;;;;;;;;;;26.60;39.30;;;;;;5051248;28;19959;-86
2022/10/03 13:43:58;;;;;;;;;;;26.70;39.60;;;;;;5049642;28;20367;-89
2022/10/03 13:46:33;;;;;;;;;;;26.90;39.40;;;;;;5068528;28;19931;-86
2022/10/03 13:49:00;;;;;;;;;;;26.90;38.80;;;;;;5071581;28;19908;-89
2022/10/03 13:51:46;;;;;;;;;;;27.10;38.80;;;;;;5067155;28;19923;-88
2022/10/03 13:54:20;;;;;;;;;;;27.10;38.10;;;;;;5073761;28;19912;-89
2022/10/03 13:56:51;;;;;;;;;;;27.10;38.40;;;;;;5053267;28;19924;-89
2022/10/03 13:59:28;;;;;;;;;;;27.20;38.30;;;;;;5070266;28;20280;-88
2022/10/03 14:01:59;;;;;;;;;;;27.20;38.40;;;;;;5049956;28;19912;-88
2022/10/03 14:04:40;;;;;;;;;;;27.30;38.50;;;;;;5071566;28;19983;-87
2022/10/03 14:07:23;;;;;;;;;;;27.30;38.70;;;;;;5034028;28;19978;-89
2022/10/03 14:10:15;;;;;;;;;;;27.30;38.50;;;;;;5053325;28;19913;-88
2022/10/03 14:12:54;;;;;;;;;;;27.30;38.30;;;;;;5064261;28;19924;-88
2022/10/03 14:15:28;;;;;;;;;;;27.20;38.10;;;;;;5070591;28;20314;-87
2022/10/03 14:17:57;;;;;;;;;;;27.00;38.10;;;;;;5053638;28;19999;-89
2022/10/03 14:20:25;;;;;;;;;;;26.90;38.30;;;;;;5070761;28;19923;-90
2022/10/03 14:22:59;;;;;;;;;;;26.80;38.60;;;;;;5067695;28;20379;-89
2022/10/03 14:25:48;;;;;;;;;;;26.70;38.40;;;;;;5070800;28;20044;-90
2022/10/03 14:28:29;;;;;;;;;;;26.70;38.50;;;;;;5015671;28;19917;-88
2022/10/03 14:30:57;;;;;;;;;;;26.60;38.70;;;;;;5050774;28;19924;-86
2022/10/03 14:33:34;;;;;;;;;;;26.50;38.90;;;;;;5071896;28;20331;-88
2022/10/03 14:36:18;;;;;;;;;;;26.40;39.00;;;;;;5071341;28;20367;-87
2022/10/03 14:39:02;;;;;;;;;;;26.30;39.00;;;;;;5073360;28;20359;-86
2022/10/03 14:41:36;;;;;;;;;;;26.10;39.20;;;;;;5068117;28;19924;-87
2022/10/03 14:44:13;;;;;;;;;;;25.90;39.50;;;;;;5071113;28;19908;-89
2022/10/03 14:46:47;;;;;;;;;;;25.80;39.70;;;;;;5071179;28;20327;-88
2022/10/03 14:49:19;;;;;;;;;;;25.70;39.90;;;;;;5071540;28;19908;-88
2022/10/03 14:51:53;;;;;;;;;;;25.60;40.00;;;;;;5049465;28;20690;-87
2022/10/03 14:54:21;;;;;;;;;;;25.60;40.30;;;;;;5071446;28;19915;-87
2022/10/03 14:56:48;;;;;;;;;;;25.50;40.50;;;;;;5056188;28;19917;-90
2022/10/03 14:59:22;;;;;;;;;;;25.50;40.60;;;;;;5054975;28;20440;-88
2022/10/03 15:01:52;;;;;;;;;;;25.40;40.80;;;;;;5063183;28;19924;-89
2022/10/03 15:04:31;;;;;;;;;;;25.40;40.60;;;;;;5072676;28;19916;-87
2022/10/03 15:06:59;;;;;;;;;;;25.30;40.90;;;;;;5073137;28;19932;-88
2022/10/03 15:09:32;;;;;;;;;;;25.30;40.90;;;;;;5077845;28;20351;-90
2022/10/03 15:12:19;;;;;;;;;;;25.20;41.10;;;;;;5067821;28;19913;-87
2022/10/03 15:14:57;;;;;;;;;;;25.20;41.10;;;;;;5056300;28;20346;-87
2022/10/03 15:17:36;;;;;;;;;;;25.10;41.20;;;;;;5075565;23;19924;-86
2022/10/03 15:20:04;;;;;;;;;;;25.00;41.20;;;;;;5064559;28;19989;-87
2022/10/03 15:22:39;;;;;;;;;;;25.00;41.30;;;;;;5049842;28;19913;-87